createdAt,value
2019-03-26T11:10:36.040Z,1019.8
2019-03-26T11:11:47.000Z,1019.7
2019-03-26T11:12:59.000Z,1019.6
2019-03-26T11:14:12.754Z,1019.7
2019-03-26T11:15:25.006Z,1019.7
2019-03-26T11:16:37.244Z,1019.6
2019-03-26T11:17:48.000Z,1019.6
2019-03-26T11:19:00.000Z,1019.5
2019-03-26T11:20:13.000Z,1019.5
2019-03-26T11:21:26.204Z,1019.5
2019-03-26T11:22:38.044Z,1019.6
2019-03-26T11:23:50.683Z,1019.5
2019-03-26T11:25:02.930Z,1019.5
2019-03-26T11:26:14.000Z,1019.6
2019-03-26T11:27:27.402Z,1019.6
2019-03-26T11:28:39.652Z,1019.6
2019-03-26T11:29:50.000Z,1019.7
2019-03-26T11:31:03.000Z,1019.8
2019-03-26T11:32:15.000Z,1019.8
2019-03-26T11:33:28.060Z,1019.8
2019-03-26T11:34:40.846Z,1019.9
2019-03-26T11:35:53.096Z,1019.8
2019-03-26T11:37:04.000Z,1019.8
2019-03-26T11:38:17.579Z,1019.9
2019-03-26T11:39:28.000Z,1019.9
2019-03-26T11:40:41.000Z,1019.8
2019-03-26T11:41:54.318Z,1019.9
2019-03-26T11:43:05.000Z,1019.8
2019-03-26T11:44:18.820Z,1019.8
2019-03-26T11:45:31.070Z,1019.8
2019-03-26T11:46:43.324Z,1019.8
2019-03-26T11:47:54.000Z,1019.8
2019-03-26T11:49:07.834Z,1019.8
2019-03-26T11:50:19.000Z,1019.8
2019-03-26T11:52:43.000Z,1019.8
2019-03-26T11:53:55.000Z,1019.8
2019-03-26T11:55:08.000Z,1019.8
2019-03-26T11:56:21.000Z,1019.8
2019-03-26T11:57:33.613Z,1019.9
2019-03-26T11:58:45.904Z,1019.8
2019-03-26T11:59:57.000Z,1019.8
2019-03-26T12:01:10.370Z,1019.8
2019-03-26T12:02:21.000Z,1019.8
2019-03-26T12:03:33.000Z,1019.8
2019-03-26T12:04:46.000Z,1019.8
2019-03-26T12:05:58.000Z,1019.8
2019-03-26T12:07:11.632Z,1019.9
2019-03-26T12:08:23.901Z,1020
2019-03-26T12:09:36.143Z,1020
2019-03-26T12:10:48.039Z,1020
2019-03-26T12:11:59.000Z,1020
2019-03-26T12:13:11.000Z,1020
2019-03-26T12:14:24.000Z,1020
2019-03-26T12:15:36.000Z,1020
2019-03-26T12:16:48.000Z,1020
2019-03-26T12:18:01.916Z,1020
2019-03-26T12:19:13.000Z,1020
2019-03-26T12:20:25.000Z,1020.1
2019-03-26T12:21:37.000Z,1020.1
2019-03-26T12:22:49.000Z,1020.1
2019-03-26T12:24:02.000Z,1020.2
2019-03-26T12:25:15.433Z,1020.2
2019-03-26T12:26:26.000Z,1020.1
2019-03-26T12:27:38.000Z,1020.2
2019-03-26T12:28:51.000Z,1020.2
2019-03-26T12:30:04.451Z,1020.1
2019-03-26T12:31:15.000Z,1020
2019-03-26T12:32:28.963Z,1020
2019-03-26T12:33:41.208Z,1020
2019-03-26T12:34:53.466Z,1020.1
2019-03-26T12:36:05.000Z,1020
2019-03-26T12:37:16.000Z,1020.1
2019-03-26T12:38:29.000Z,1020
2019-03-26T12:39:41.000Z,1020
2019-03-26T12:40:54.729Z,1019.9
2019-03-26T12:42:05.000Z,1019.9
2019-03-26T12:43:18.000Z,1019.9
2019-03-26T12:44:30.000Z,1020
2019-03-26T12:45:43.745Z,1020
2019-03-26T12:46:54.000Z,1019.9
2019-03-26T12:48:07.000Z,1019.9
2019-03-26T12:49:20.507Z,1019.9
2019-03-26T12:50:32.757Z,1019.9
2019-03-26T12:51:45.014Z,1019.9
2019-03-26T12:53:01.000Z,1019.9
2019-03-26T12:54:08.000Z,1020
2019-03-26T12:55:21.770Z,1019.9
2019-03-26T12:56:33.000Z,1019.9
2019-03-26T12:57:45.000Z,1019.8
2019-03-26T12:58:57.000Z,1019.8
2019-03-26T13:00:09.000Z,1019.8
2019-03-26T13:01:23.039Z,1019.8
2019-03-26T13:02:34.000Z,1019.8
2019-03-26T13:03:46.000Z,1020
2019-03-26T13:05:05.000Z,1019.9
2019-03-26T13:06:11.000Z,1019.8
2019-03-26T13:07:23.000Z,1019.7
2019-03-26T13:14:39.000Z,1019.7
2019-03-26T13:15:57.000Z,1019.6
2019-03-26T13:18:14.000Z,1019.7
2019-03-26T13:20:48.000Z,1019.7
2019-03-26T13:23:05.000Z,1019.8
2019-03-26T13:24:14.000Z,1019.8
2019-03-26T13:25:27.000Z,1019.7
2019-03-26T13:26:40.364Z,1019.8
2019-03-26T13:27:51.000Z,1019.8
2019-03-26T13:29:03.000Z,1019.8
2019-03-26T13:30:16.000Z,1019.9
2019-03-26T13:31:28.000Z,1019.9
2019-03-26T13:32:40.000Z,1019.9
2019-03-26T13:33:53.884Z,1019.9
2019-03-26T13:35:05.000Z,1019.9
2019-03-26T13:36:18.000Z,1019.9
2019-03-26T13:38:41.000Z,1020
2019-03-26T13:39:54.000Z,1020
2019-03-26T13:41:06.000Z,1020.1
2019-03-26T13:42:18.000Z,1020.2
2019-03-26T13:43:30.000Z,1021.3
2019-03-26T13:44:43.000Z,1020.3
2019-03-26T13:45:55.000Z,1020.3
2019-03-26T13:47:07.000Z,1020
2019-03-26T13:48:19.000Z,1020.4
2019-03-26T13:49:32.000Z,1021.6
2019-03-26T13:50:44.000Z,1020.1
2019-03-26T13:51:56.000Z,1020
2019-03-26T13:53:09.952Z,1020
2019-03-26T13:54:21.000Z,1019.9
2019-03-26T13:55:33.000Z,1019.9
2019-03-26T13:56:45.000Z,1019.9
2019-03-26T13:57:57.000Z,1019.8
